Time;durP1;ratioP1;P1;durP2;ratioP2;P2;SDS_P1;SDS_P2;PMS_P1;PMS_P2;Temp;Humidity;BMP_temperature;BMP_pressure;BME280_temperature;BME280_humidity;BME280_pressure;Samples;Min_cycle;Max_cycle;Signal;HPM_P1;HPM_P2
2023/06/17 00:01:20;;;;;;;8.63;5.77;;;21.60;58.30;;;;;;4979583;28;20452;-73
2023/06/17 00:03:45;;;;;;;5.77;5.20;;;21.50;58.30;;;;;;4999620;28;20210;-74
2023/06/17 00:06:11;;;;;;;9.33;5.30;;;21.40;58.40;;;;;;4998638;28;20860;-74
2023/06/17 00:08:37;;;;;;;6.57;5.23;;;21.40;58.30;;;;;;4990115;28;20741;-73
2023/06/17 00:11:03;;;;;;;6.60;5.97;;;21.40;58.30;;;;;;5006692;28;20331;-74
2023/06/17 00:13:29;;;;;;;8.17;5.97;;;21.30;58.30;;;;;;5002349;28;20221;-73
2023/06/17 00:15:59;;;;;;;6.00;5.40;;;21.30;58.50;;;;;;4999934;28;20484;-73
2023/06/17 00:18:26;;;;;;;5.10;4.70;;;21.10;58.60;;;;;;5007105;28;20237;-74
2023/06/17 00:20:52;;;;;;;6.03;5.43;;;21.10;58.60;;;;;;5007444;28;20487;-74
2023/06/17 00:23:21;;;;;;;6.10;5.50;;;20.90;58.60;;;;;;5005008;28;20449;-74
2023/06/17 00:25:48;;;;;;;6.90;5.90;;;21.00;58.60;;;;;;4986393;28;20523;-73
2023/06/17 00:28:14;;;;;;;5.90;5.30;;;20.80;58.60;;;;;;5006622;28;20499;-74
2023/06/17 00:30:39;;;;;;;6.10;5.40;;;20.80;58.80;;;;;;5003974;28;20496;-73
2023/06/17 00:33:05;;;;;;;5.67;5.10;;;20.90;58.70;;;;;;4990103;28;20214;-73
2023/06/17 00:35:31;;;;;;;6.37;5.77;;;20.90;58.70;;;;;;5006671;28;20202;-73
2023/06/17 00:37:57;;;;;;;6.47;5.87;;;20.80;58.70;;;;;;4990895;28;20222;-73
2023/06/17 00:40:22;;;;;;;6.83;5.83;;;20.80;58.80;;;;;;4997260;28;20507;-73
2023/06/17 00:42:48;;;;;;;6.70;6.10;;;20.90;58.70;;;;;;4986317;28;20222;-73
2023/06/17 00:45:14;;;;;;;6.07;4.90;;;20.80;58.80;;;;;;5006181;28;20218;-73
2023/06/17 00:47:40;;;;;;;6.37;5.80;;;20.60;58.80;;;;;;4998782;28;21097;-73
2023/06/17 00:50:08;;;;;;;6.30;5.70;;;20.60;58.90;;;;;;4989948;28;20213;-73
2023/06/17 00:52:36;;;;;;;6.20;5.60;;;20.70;59.40;;;;;;5006593;28;20554;-73
2023/06/17 00:55:01;;;;;;;6.90;6.27;;;20.70;58.90;;;;;;5005786;28;20463;-73
2023/06/17 00:57:28;;;;;;;6.60;6.00;;;20.60;58.80;;;;;;5007323;28;21135;-73
2023/06/17 00:59:54;;;;;;;5.43;4.93;;;20.50;58.80;;;;;;5000021;28;20297;-73
2023/06/17 01:02:25;;;;;;;8.57;5.90;;;20.60;58.90;;;;;;4989764;28;20539;-73
2023/06/17 01:04:52;;;;;;;6.10;5.50;;;20.60;58.80;;;;;;5007251;28;20526;-73
2023/06/17 01:07:26;;;;;;;5.83;4.90;;;20.60;58.70;;;;;;5007379;28;20982;-72
2023/06/17 01:10:01;;;;;;;7.03;6.23;;;20.60;58.80;;;;;;4990865;28;20455;-73
2023/06/17 01:12:28;;;;;;;6.70;6.20;;;20.60;58.90;;;;;;4993648;28;20452;-73
2023/06/17 01:14:57;;;;;;;7.87;6.27;;;20.50;58.90;;;;;;4995567;28;20449;-73
2023/06/17 01:17:25;;;;;;;7.53;6.30;;;20.50;59.00;;;;;;5010056;28;20992;-73
2023/06/17 01:19:57;;;;;;;6.50;5.10;;;20.20;58.90;;;;;;5010258;28;20472;-73
2023/06/17 01:22:26;;;;;;;6.40;5.07;;;20.20;59.10;;;;;;5008770;28;20530;-72
2023/06/17 01:24:52;;;;;;;7.63;5.93;;;20.30;59.20;;;;;;4993898;28;20472;-72
2023/06/17 01:27:18;;;;;;;6.80;5.97;;;20.40;59.00;;;;;;4990979;28;20515;-73
2023/06/17 01:29:47;;;;;;;5.87;5.27;;;20.40;59.00;;;;;;4980069;28;20454;-72
2023/06/17 01:32:13;;;;;;;6.10;5.60;;;20.40;59.00;;;;;;5009293;28;20230;-73
2023/06/17 01:35:02;;;;;;;6.20;5.60;;;20.40;59.10;;;;;;5010381;28;20444;-73
2023/06/17 01:37:41;;;;;;;6.30;5.70;;;20.30;59.00;;;;;;5004790;28;20978;-73
2023/06/17 01:40:11;;;;;;;6.63;6.03;;;20.30;59.10;;;;;;4992330;28;20551;-73
2023/06/17 01:42:41;;;;;;;8.20;6.13;;;20.20;59.20;;;;;;4992452;28;20507;-74
2023/06/17 01:45:07;;;;;;;6.63;5.40;;;20.10;59.20;;;;;;4991396;28;20466;-73
2023/06/17 01:47:34;;;;;;;5.67;5.17;;;20.10;59.20;;;;;;5009251;28;20548;-73
2023/06/17 01:50:02;;;;;;;10.30;5.87;;;20.00;59.30;;;;;;5008902;28;20456;-73
2023/06/17 01:52:28;;;;;;;6.73;5.80;;;20.00;59.30;;;;;;4991306;28;20470;-73
2023/06/17 01:54:54;;;;;;;5.97;5.40;;;20.00;59.40;;;;;;5006678;28;20457;-73
2023/06/17 01:57:20;;;;;;;6.37;5.67;;;20.00;59.40;;;;;;4992036;28;20249;-74
2023/06/17 01:59:46;;;;;;;6.03;5.43;;;19.90;59.30;;;;;;4989203;28;20537;-73
2023/06/17 02:02:13;;;;;;;6.00;5.50;;;19.70;59.60;;;;;;5008709;28;20528;-73
2023/06/17 02:04:38;;;;;;;6.50;5.80;;;19.70;59.90;;;;;;5007926;28;20536;-73
2023/06/17 02:07:04;;;;;;;6.77;6.17;;;19.60;59.80;;;;;;5006258;28;20275;-72
2023/06/17 02:09:30;;;;;;;8.10;5.13;;;19.70;59.80;;;;;;5007921;28;20320;-72
2023/06/17 02:11:55;;;;;;;6.30;5.67;;;19.80;59.70;;;;;;4998904;28;20230;-74
2023/06/17 02:14:21;;;;;;;5.57;4.73;;;19.80;59.90;;;;;;5002283;28;20711;-73
2023/06/17 02:16:47;;;;;;;6.93;5.87;;;19.80;59.50;;;;;;5009174;28;20213;-72
2023/06/17 02:19:15;;;;;;;6.43;5.17;;;19.70;59.50;;;;;;4993303;28;20770;-72
2023/06/17 02:21:41;;;;;;;5.60;5.10;;;19.60;59.90;;;;;;4987311;28;20462;-73
2023/06/17 02:24:07;;;;;;;6.27;5.50;;;19.60;60.20;;;;;;4987076;28;20995;-73
2023/06/17 02:26:33;;;;;;;6.73;5.93;;;19.50;60.20;;;;;;4996251;28;20497;-72
2023/06/17 02:28:59;;;;;;;6.70;6.00;;;19.50;60.50;;;;;;4992866;28;20225;-73
2023/06/17 02:31:27;;;;;;;7.13;5.50;;;19.40;60.40;;;;;;5006959;28;20280;-73
2023/06/17 02:33:53;;;;;;;5.57;4.90;;;19.40;60.40;;;;;;5014471;28;20308;-73
2023/06/17 02:36:19;;;;;;;5.30;4.90;;;19.30;60.50;;;;;;5009207;28;20539;-72
2023/06/17 02:38:47;;;;;;;6.53;5.87;;;19.00;60.60;;;;;;4992179;28;20703;-73
2023/06/17 02:41:12;;;;;;;7.00;5.43;;;18.90;60.60;;;;;;4995959;28;20901;-73
2023/06/17 02:43:38;;;;;;;6.23;5.20;;;19.00;61.10;;;;;;4991682;28;20453;-74
2023/06/17 02:46:04;;;;;;;6.00;5.40;;;19.10;60.70;;;;;;5005526;28;20788;-74
2023/06/17 02:48:31;;;;;;;6.50;5.90;;;19.20;60.70;;;;;;5006296;28;20218;-72
2023/06/17 02:50:58;;;;;;;6.50;5.77;;;19.20;60.50;;;;;;5007322;28;20487;-72
2023/06/17 02:53:24;;;;;;;6.10;5.50;;;19.20;60.30;;;;;;5009889;28;20225;-73
2023/06/17 02:55:50;;;;;;;6.67;6.03;;;19.20;60.70;;;;;;4995862;28;21109;-73
2023/06/17 02:58:19;;;;;;;5.67;5.13;;;19.10;60.50;;;;;;5006906;28;20471;-72
2023/06/17 03:00:48;;;;;;;9.80;6.17;;;19.00;60.50;;;;;;4998648;28;21009;-73
2023/06/17 03:03:14;;;;;;;6.73;6.10;;;19.10;60.60;;;;;;5007046;28;20453;-73
2023/06/17 03:05:41;;;;;;;6.70;6.10;;;19.10;60.40;;;;;;5008158;28;20256;-73
2023/06/17 03:08:07;;;;;;;6.20;5.50;;;19.10;60.70;;;;;;5007732;28;20218;-71
2023/06/17 03:10:33;;;;;;;6.70;6.00;;;19.10;60.50;;;;;;5010344;28;20567;-73
2023/06/17 03:13:06;;;;;;;7.40;6.00;;;19.00;59.90;;;;;;5007984;28;20229;-73
2023/06/17 03:15:32;;;;;;;6.17;5.57;;;18.90;60.50;;;;;;5008677;28;20814;-73
2023/06/17 03:17:58;;;;;;;6.57;5.90;;;18.90;60.60;;;;;;5013467;28;20209;-73
2023/06/17 03:20:28;;;;;;;8.27;6.13;;;18.70;60.50;;;;;;4987970;28;20480;-72
2023/06/17 03:22:55;;;;;;;10.33;6.10;;;18.90;60.80;;;;;;5015144;28;21021;-73
2023/06/17 03:25:22;;;;;;;6.97;6.30;;;18.90;60.90;;;;;;4996109;28;20631;-72
2023/06/17 03:27:50;;;;;;;6.73;6.03;;;18.90;60.90;;;;;;5008591;28;20523;-71
2023/06/17 03:30:16;;;;;;;6.27;5.47;;;19.00;60.90;;;;;;5004897;28;20453;-72
2023/06/17 03:32:44;;;;;;;7.00;6.30;;;18.80;60.50;;;;;;4992760;28;20456;-73
2023/06/17 03:35:10;;;;;;;6.23;5.60;;;18.80;61.10;;;;;;5007253;28;20229;-71
2023/06/17 03:37:35;;;;;;;6.93;5.67;;;18.70;60.70;;;;;;5008624;28;20457;-71
2023/06/17 03:40:02;;;;;;;6.37;5.60;;;18.60;61.10;;;;;;4991484;28;20217;-71
2023/06/17 03:42:31;;;;;;;6.57;5.67;;;18.70;61.70;;;;;;4982952;28;20221;-73
2023/06/17 03:44:57;;;;;;;6.80;6.10;;;18.80;61.40;;;;;;4993555;28;20496;-72
2023/06/17 03:47:22;;;;;;;5.80;5.30;;;18.70;60.90;;;;;;4996287;28;20463;-73
2023/06/17 03:49:48;;;;;;;6.43;5.40;;;18.70;61.10;;;;;;4984583;28;20805;-73
2023/06/17 03:52:14;;;;;;;7.30;5.90;;;18.70;61.10;;;;;;4981396;28;20305;-73
2023/06/17 03:54:40;;;;;;;7.20;6.03;;;18.70;61.30;;;;;;4990145;28;20982;-73
2023/06/17 03:57:06;;;;;;;7.67;6.10;;;18.70;61.20;;;;;;4999429;28;20237;-73
2023/06/17 03:59:32;;;;;;;5.60;5.10;;;18.80;61.20;;;;;;4974223;28;20210;-73
2023/06/17 04:01:59;;;;;;;7.40;5.60;;;18.80;60.80;;;;;;4991901;28;20534;-70
2023/06/17 04:04:24;;;;;;;8.50;5.57;;;18.80;61.20;;;;;;4995429;28;20640;-72
2023/06/17 04:06:50;;;;;;;6.30;5.47;;;18.70;61.20;;;;;;5011326;28;20487;-73
2023/06/17 04:09:16;;;;;;;7.43;5.67;;;18.80;61.50;;;;;;4980070;28;20639;-72
2023/06/17 04:11:42;;;;;;;6.40;5.70;;;18.70;61.60;;;;;;5003474;28;20218;-73
2023/06/17 04:14:10;;;;;;;6.80;5.97;;;18.60;61.60;;;;;;5006864;28;20472;-74
2023/06/17 04:16:36;;;;;;;6.77;6.13;;;18.70;61.90;;;;;;5012544;28;20831;-72
2023/06/17 04:19:02;;;;;;;6.50;5.80;;;18.70;62.00;;;;;;4999019;28;20267;-73
2023/06/17 04:21:28;;;;;;;9.03;6.23;;;18.70;61.80;;;;;;4998241;28;21042;-72
2023/06/17 04:23:54;;;;;;;6.80;6.20;;;18.70;61.90;;;;;;5000962;28;20531;-73
2023/06/17 04:26:20;;;;;;;6.30;5.70;;;18.70;62.00;;;;;;5003256;28;20704;-74
2023/06/17 04:28:47;;;;;;;11.47;6.90;;;18.70;62.30;;;;;;4990663;28;20241;-73
2023/06/17 04:31:15;;;;;;;8.53;6.53;;;18.60;62.40;;;;;;5004829;28;20476;-72
2023/06/17 04:33:41;;;;;;;6.63;6.00;;;18.70;62.60;;;;;;4990332;28;20978;-73
2023/06/17 04:36:08;;;;;;;9.40;5.37;;;18.70;62.60;;;;;;5005875;28;20449;-73
2023/06/17 04:38:36;;;;;;;6.77;6.10;;;18.70;62.60;;;;;;4989606;28;20998;-73
2023/06/17 04:41:04;;;;;;;7.93;6.60;;;18.70;62.90;;;;;;4993023;28;20548;-73
2023/06/17 04:43:33;;;;;;;11.53;6.40;;;18.70;63.70;;;;;;5005904;28;20475;-70
2023/06/17 04:46:01;;;;;;;8.30;6.70;;;18.70;63.60;;;;;;5011303;28;20468;-73
2023/06/17 04:48:28;;;;;;;11.60;8.80;;;18.70;63.30;;;;;;5009983;28;20515;-73
2023/06/17 04:50:59;;;;;;;10.80;6.87;;;18.70;63.20;;;;;;5012331;28;20461;-74
2023/06/17 04:53:26;;;;;;;8.90;5.80;;;18.70;63.70;;;;;;4992913;28;20484;-72
2023/06/17 04:55:52;;;;;;;10.50;6.00;;;18.60;63.70;;;;;;4994872;28;20484;-73
2023/06/17 04:58:18;;;;;;;6.70;6.10;;;18.70;63.60;;;;;;4994034;28;20469;-73
2023/06/17 05:00:50;;;;;;;8.10;6.43;;;18.70;63.80;;;;;;5010234;28;20445;-73
2023/06/17 05:03:22;;;;;;;7.13;6.43;;;18.80;63.80;;;;;;5008867;28;20484;-73
2023/06/17 05:05:50;;;;;;;7.13;6.10;;;18.70;64.30;;;;;;4993454;28;20552;-72
2023/06/17 05:08:16;;;;;;;6.73;6.03;;;18.60;65.50;;;;;;4994025;28;21018;-73
2023/06/17 05:10:41;;;;;;;6.90;6.23;;;18.70;65.30;;;;;;4993588;28;20475;-73
2023/06/17 05:13:07;;;;;;;7.23;6.47;;;18.70;64.60;;;;;;5009871;28;20704;-72
2023/06/17 05:15:34;;;;;;;7.80;7.10;;;18.70;64.70;;;;;;4992567;28;20216;-70
2023/06/17 05:18:01;;;;;;;7.90;6.97;;;18.60;65.30;;;;;;5007739;28;21089;-72
2023/06/17 05:20:27;;;;;;;8.47;5.97;;;18.60;65.10;;;;;;4992897;28;20484;-72
2023/06/17 05:22:53;;;;;;;6.13;5.53;;;18.70;65.20;;;;;;5010758;28;20523;-72
2023/06/17 05:25:19;;;;;;;9.83;6.33;;;18.80;64.60;;;;;;4994818;28;20918;-74
2023/06/17 05:27:45;;;;;;;11.50;6.80;;;18.80;65.10;;;;;;4994291;28;20682;-71
2023/06/17 05:30:12;;;;;;;6.20;5.60;;;18.80;64.80;;;;;;4989837;28;20221;-73
2023/06/17 05:32:40;;;;;;;6.60;5.50;;;18.90;64.60;;;;;;5009941;28;20449;-70
2023/06/17 05:35:06;;;;;;;6.60;5.87;;;18.90;64.50;;;;;;5009367;28;20475;-73
2023/06/17 05:37:33;;;;;;;6.37;5.67;;;18.90;64.80;;;;;;4993722;28;20220;-73
2023/06/17 05:39:59;;;;;;;5.53;5.03;;;19.00;65.00;;;;;;5009806;28;20448;-71
2023/06/17 05:42:25;;;;;;;8.13;6.13;;;19.10;65.80;;;;;;5001573;28;20456;-72
2023/06/17 05:44:52;;;;;;;7.10;5.70;;;19.10;65.80;;;;;;5006633;28;20673;-72
2023/06/17 05:47:17;;;;;;;6.33;5.73;;;19.10;65.50;;;;;;5009200;28;20543;-72
2023/06/17 05:49:43;;;;;;;7.40;6.13;;;19.10;65.20;;;;;;5009214;28;20232;-72
2023/06/17 05:52:10;;;;;;;6.77;6.03;;;19.20;66.40;;;;;;5008969;28;21179;-73
2023/06/17 05:54:38;;;;;;;6.53;5.90;;;19.30;66.50;;;;;;5009016;28;20206;-71
2023/06/17 05:57:05;;;;;;;6.13;5.53;;;19.30;66.20;;;;;;5001603;28;20460;-72
2023/06/17 05:59:30;;;;;;;6.00;5.40;;;19.30;66.00;;;;;;5008344;28;20449;-72
2023/06/17 06:01:57;;;;;;;5.80;5.30;;;19.40;66.70;;;;;;4993844;28;20214;-72
2023/06/17 06:04:23;;;;;;;6.03;5.10;;;19.30;67.10;;;;;;5008647;28;20453;-73
2023/06/17 06:06:49;;;;;;;7.97;6.00;;;19.30;67.70;;;;;;5006976;28;20476;-72
2023/06/17 06:09:15;;;;;;;7.23;6.33;;;19.40;67.90;;;;;;5006853;28;20236;-72
2023/06/17 06:11:41;;;;;;;5.70;5.13;;;19.50;67.70;;;;;;4992791;28;20222;-72
2023/06/17 06:14:06;;;;;;;6.90;5.60;;;19.50;67.90;;;;;;4993653;28;20460;-74
2023/06/17 06:16:32;;;;;;;8.67;5.77;;;19.60;68.10;;;;;;5008023;28;20265;-73
2023/06/17 06:18:58;;;;;;;6.40;5.80;;;19.60;68.30;;;;;;4992901;28;20229;-73
2023/06/17 06:21:23;;;;;;;6.27;5.77;;;19.70;68.40;;;;;;4991272;28;20229;-73
2023/06/17 06:23:49;;;;;;;8.60;6.50;;;19.70;69.10;;;;;;5009992;28;20225;-73
2023/06/17 06:26:15;;;;;;;6.30;5.70;;;19.60;71.30;;;;;;4984522;28;20680;-73
2023/06/17 06:28:41;;;;;;;6.90;6.30;;;19.60;71.70;;;;;;4989301;28;20453;-70
2023/06/17 06:31:07;;;;;;;6.90;6.13;;;19.60;72.30;;;;;;5006435;28;20511;-73
2023/06/17 06:33:35;;;;;;;9.77;6.83;;;19.60;72.10;;;;;;5004028;28;20214;-73
2023/06/17 06:36:02;;;;;;;8.40;6.13;;;19.70;72.40;;;;;;5008499;28;20707;-73
2023/06/17 06:38:28;;;;;;;7.13;6.43;;;19.70;71.80;;;;;;4990504;28;20541;-73
2023/06/17 06:40:53;;;;;;;7.27;6.57;;;19.80;73.00;;;;;;4992163;28;20704;-72
2023/06/17 06:43:20;;;;;;;6.70;6.10;;;19.90;72.00;;;;;;4991431;28;20220;-73
2023/06/17 06:45:49;;;;;;;7.10;6.40;;;20.10;71.60;;;;;;4988089;28;20719;-72
2023/06/17 06:48:15;;;;;;;6.77;6.13;;;20.10;71.30;;;;;;4982967;28;20473;-72
2023/06/17 06:50:40;;;;;;;7.10;6.50;;;20.30;71.40;;;;;;4985831;28;20449;-70
2023/06/17 06:53:08;;;;;;;6.13;5.63;;;20.30;71.20;;;;;;4988596;28;20218;-73
2023/06/17 06:55:33;;;;;;;6.50;5.70;;;20.60;71.90;;;;;;5001202;28;20853;-74
2023/06/17 06:58:00;;;;;;;6.00;5.40;;;20.70;72.30;;;;;;4998279;28;20349;-74
2023/06/17 07:00:25;;;;;;;6.97;6.27;;;21.00;74.60;;;;;;5011796;28;20308;-72
2023/06/17 07:02:51;;;;;;;7.30;6.33;;;21.20;75.40;;;;;;4985067;28;20531;-72
2023/06/17 07:05:21;;;;;;;7.20;6.53;;;21.50;75.60;;;;;;4982651;28;20727;-72
2023/06/17 07:07:50;;;;;;;7.40;6.70;;;21.60;75.90;;;;;;4999410;28;20442;-72
2023/06/17 07:10:16;;;;;;;8.07;5.90;;;21.80;76.40;;;;;;4997971;28;20996;-73
2023/06/17 07:12:42;;;;;;;7.30;6.60;;;21.90;76.50;;;;;;4996869;28;20257;-73
2023/06/17 07:15:09;;;;;;;7.23;6.07;;;21.90;76.00;;;;;;5001849;28;20213;-72
2023/06/17 07:17:36;;;;;;;7.47;6.70;;;22.00;76.00;;;;;;5001506;28;20456;-73
2023/06/17 07:20:05;;;;;;;7.30;6.30;;;22.00;73.60;;;;;;4999831;28;20475;-73
2023/06/17 07:22:31;;;;;;;6.77;6.07;;;22.10;76.20;;;;;;5001080;28;20316;-72
2023/06/17 07:24:57;;;;;;;6.83;6.20;;;22.30;76.10;;;;;;4984917;28;20492;-72
2023/06/17 07:27:23;;;;;;;6.90;6.30;;;22.20;75.60;;;;;;4982992;28;20909;-72
2023/06/17 07:29:48;;;;;;;6.57;5.97;;;22.10;75.60;;;;;;5000368;28;20480;-73
2023/06/17 07:32:14;;;;;;;6.73;6.10;;;22.30;76.00;;;;;;5000440;28;20228;-73
2023/06/17 07:34:40;;;;;;;9.50;6.07;;;22.40;75.60;;;;;;4983696;28;20253;-73
2023/06/17 07:37:05;;;;;;;6.50;5.90;;;22.60;76.00;;;;;;5002675;28;20209;-72
2023/06/17 07:39:32;;;;;;;8.03;7.23;;;22.80;75.40;;;;;;4986890;28;20216;-72
2023/06/17 07:41:58;;;;;;;7.50;6.80;;;22.90;75.30;;;;;;4986386;28;20465;-72
2023/06/17 07:44:26;;;;;;;6.53;5.60;;;23.00;75.40;;;;;;5001276;28;20624;-74
2023/06/17 07:46:52;;;;;;;7.00;6.40;;;23.10;75.00;;;;;;4986253;28;20279;-72
2023/06/17 07:49:18;;;;;;;7.10;6.50;;;23.20;74.30;;;;;;5002199;28;20460;-71
2023/06/17 07:51:43;;;;;;;8.03;6.30;;;23.40;74.70;;;;;;5005121;28;20700;-71
2023/06/17 07:54:09;;;;;;;7.40;6.30;;;23.50;74.30;;;;;;4993758;28;20700;-72
2023/06/17 07:56:35;;;;;;;7.13;6.43;;;23.70;74.40;;;;;;5002797;28;20724;-71
2023/06/17 07:59:01;;;;;;;7.57;6.87;;;23.80;74.20;;;;;;5003583;28;20209;-71
2023/06/17 08:01:27;;;;;;;7.73;7.03;;;23.90;74.40;;;;;;4984213;28;20653;-73
2023/06/17 08:03:53;;;;;;;9.90;6.70;;;23.90;74.60;;;;;;4984764;28;20586;-74
2023/06/17 08:06:19;;;;;;;7.30;6.60;;;24.00;74.50;;;;;;5012042;28;20473;-73
2023/06/17 08:08:45;;;;;;;13.73;6.87;;;24.20;74.40;;;;;;4998740;28;20248;-73
2023/06/17 08:11:11;;;;;;;8.37;7.20;;;24.20;73.90;;;;;;4999744;28;20472;-73
2023/06/17 08:13:37;;;;;;;6.93;6.30;;;24.20;73.60;;;;;;4999793;28;20456;-73
2023/06/17 08:16:03;;;;;;;7.47;6.77;;;24.30;73.80;;;;;;5002744;28;20477;-72
2023/06/17 08:18:29;;;;;;;9.10;6.70;;;24.50;73.40;;;;;;5004311;28;20316;-72
2023/06/17 08:20:55;;;;;;;7.90;7.20;;;24.40;72.00;;;;;;5004975;28;20217;-74
2023/06/17 08:23:21;;;;;;;7.07;6.37;;;24.40;71.00;;;;;;5002614;28;20206;-72
2023/06/17 08:25:49;;;;;;;7.70;6.97;;;24.50;70.10;;;;;;5001556;28;20245;-73
2023/06/17 08:28:14;;;;;;;7.60;6.90;;;24.50;69.40;;;;;;5004277;28;20467;-73
2023/06/17 08:30:40;;;;;;;6.73;6.13;;;24.60;65.10;;;;;;5002822;28;20465;-73
2023/06/17 08:33:06;;;;;;;7.33;6.27;;;24.60;65.70;;;;;;4989269;28;20228;-73
2023/06/17 08:35:31;;;;;;;7.37;5.80;;;24.80;66.10;;;;;;5003400;28;20213;-73
2023/06/17 08:37:57;;;;;;;6.87;6.27;;;24.90;64.40;;;;;;4999941;28;20592;-74
2023/06/17 08:40:23;;;;;;;7.83;6.63;;;25.20;64.80;;;;;;5004072;28;20213;-73
2023/06/17 08:43:00;;;;;;;7.30;6.60;;;25.30;64.80;;;;;;4999358;28;20217;-73
2023/06/17 08:45:26;;;;;;;7.10;6.37;;;25.30;64.80;;;;;;5003324;28;21088;-73
2023/06/17 08:47:52;;;;;;;6.27;5.67;;;25.30;63.50;;;;;;5003685;28;20459;-73
2023/06/17 08:50:18;;;;;;;6.80;5.83;;;25.40;63.30;;;;;;4985010;28;20225;-73
2023/06/17 08:52:46;;;;;;;6.40;5.47;;;25.70;62.30;;;;;;4987902;28;21108;-73
2023/06/17 08:55:13;;;;;;;6.27;5.77;;;26.00;61.50;;;;;;5005018;28;20460;-73
2023/06/17 08:57:40;;;;;;;6.40;5.80;;;26.00;61.50;;;;;;4974057;28;20471;-73
2023/06/17 09:00:10;;;;;;;6.73;6.10;;;26.10;61.50;;;;;;5001698;28;21288;-72
2023/06/17 09:02:37;;;;;;;9.90;6.17;;;26.20;60.50;;;;;;5003906;28;20495;-73
2023/06/17 09:05:04;;;;;;;6.60;6.00;;;26.20;59.90;;;;;;5002411;28;20477;-73
2023/06/17 09:07:30;;;;;;;6.97;6.33;;;26.30;59.60;;;;;;4986092;28;20575;-73
2023/06/17 09:10:04;;;;;;;6.93;6.33;;;26.60;57.90;;;;;;5002622;28;20547;-73
2023/06/17 09:12:39;;;;;;;6.80;6.20;;;26.80;58.40;;;;;;5004967;28;20220;-73
2023/06/17 09:15:07;;;;;;;7.23;6.60;;;26.60;58.50;;;;;;4984725;28;20905;-73
2023/06/17 09:17:35;;;;;;;5.87;5.37;;;26.70;59.10;;;;;;5000263;28;20233;-73
2023/06/17 09:20:12;;;;;;;8.57;5.97;;;26.80;59.10;;;;;;4996249;28;20221;-73
2023/06/17 09:22:46;;;;;;;6.47;5.87;;;26.90;57.40;;;;;;5001046;28;20263;-73
2023/06/17 09:25:14;;;;;;;6.50;5.83;;;26.70;57.30;;;;;;5002522;28;20484;-73
2023/06/17 09:27:53;;;;;;;6.50;5.90;;;26.90;56.80;;;;;;5004639;28;20241;-73
2023/06/17 09:30:22;;;;;;;6.63;5.80;;;27.00;56.40;;;;;;5007646;28;20475;-73
2023/06/17 09:32:51;;;;;;;6.77;6.07;;;27.00;56.90;;;;;;5006109;28;20218;-73
2023/06/17 09:35:18;;;;;;;6.83;6.13;;;27.00;56.30;;;;;;4995752;28;20838;-73
2023/06/17 09:37:49;;;;;;;5.80;5.30;;;27.00;56.50;;;;;;4989561;28;20221;-73
2023/06/17 09:40:15;;;;;;;5.83;5.33;;;27.10;56.80;;;;;;5007857;28;20233;-74
2023/06/17 09:42:44;;;;;;;6.27;5.70;;;27.30;57.00;;;;;;5006903;28;20217;-73
2023/06/17 09:45:12;;;;;;;7.47;6.35;;;27.60;56.60;;;;;;5001494;28;20487;-73
2023/06/17 09:47:39;;;;;;;8.25;6.53;;;28.10;54.70;;;;;;5006011;28;20299;-73
2023/06/17 09:50:09;;;;;;;6.15;5.60;;;28.40;54.60;;;;;;5004522;28;20264;-73
2023/06/17 09:52:37;;;;;;;5.95;5.55;;;28.50;54.90;;;;;;5000204;28;20324;-73
2023/06/17 09:55:04;;;;;;;6.43;5.85;;;28.40;54.50;;;;;;4998217;28;20217;-74
2023/06/17 09:57:31;;;;;;;6.60;6.00;;;28.20;54.60;;;;;;4996464;28;20241;-74
2023/06/17 10:00:10;;;;;;;5.97;5.47;;;28.10;55.20;;;;;;5001351;28;20305;-74
2023/06/17 10:02:39;;;;;;;6.32;5.72;;;28.20;54.50;;;;;;4993654;28;20311;-73
2023/06/17 10:05:12;;;;;;;6.75;5.70;;;28.20;54.20;;;;;;4997603;28;20225;-74
2023/06/17 10:07:41;;;;;;;6.75;6.15;;;28.00;53.60;;;;;;4997538;28;20841;-73
2023/06/17 10:10:09;;;;;;;6.32;5.82;;;28.30;54.00;;;;;;4998790;28;20695;-73
2023/06/17 10:12:36;;;;;;;7.53;6.03;;;28.20;53.50;;;;;;4993749;28;20271;-73
2023/06/17 10:15:03;;;;;;;6.95;6.07;;;28.20;53.30;;;;;;4998773;28;20652;-73
2023/06/17 10:17:32;;;;;;;6.00;5.50;;;28.00;53.30;;;;;;4988899;28;20221;-73
2023/06/17 10:20:00;;;;;;;6.78;6.18;;;27.80;53.60;;;;;;4982680;28;20217;-73
2023/06/17 10:22:27;;;;;;;7.18;5.88;;;27.80;53.20;;;;;;5001004;28;20308;-73
2023/06/17 10:24:52;;;;;;;7.20;6.50;;;28.10;53.30;;;;;;4994709;28;20218;-74
2023/06/17 10:27:22;;;;;;;6.80;6.22;;;28.20;53.40;;;;;;5000472;28;20783;-76
2023/06/17 10:29:49;;;;;;;6.50;5.90;;;28.10;52.70;;;;;;4991667;28;20225;-73
2023/06/17 10:32:24;;;;;;;9.93;6.32;;;28.00;53.30;;;;;;5000832;28;20222;-73
2023/06/17 10:35:04;;;;;;;6.90;6.22;;;27.90;52.80;;;;;;4990123;28;20248;-74
2023/06/17 10:37:31;;;;;;;6.60;6.10;;;27.80;53.00;;;;;;4982087;28;20245;-71
2023/06/17 10:40:27;;;;;;;6.53;6.03;;;28.30;53.00;;;;;;4996514;28;20209;-75
2023/06/17 10:43:17;;;;;;;7.95;6.90;;;28.60;53.00;;;;;;4987110;28;20217;-74
2023/06/17 10:45:53;;;;;;;14.07;6.28;;;28.80;53.30;;;;;;4992109;28;20221;-73
2023/06/17 10:48:29;;;;;;;7.38;6.40;;;28.80;53.30;;;;;;4982662;28;20215;-75
2023/06/17 10:50:57;;;;;;;6.32;5.82;;;29.00;52.30;;;;;;4997418;28;20236;-73
2023/06/17 10:53:31;;;;;;;7.25;6.65;;;29.10;52.50;;;;;;4993231;28;20966;-73
2023/06/17 10:56:00;;;;;;;6.95;5.93;;;29.50;52.70;;;;;;4997875;28;20292;-73
2023/06/17 10:58:36;;;;;;;8.43;7.07;;;29.60;52.80;;;;;;4981289;28;20248;-73
2023/06/17 11:01:03;;;;;;;7.03;6.45;;;29.30;52.20;;;;;;4993704;28;20263;-73
2023/06/17 11:03:29;;;;;;;6.60;6.05;;;29.30;52.50;;;;;;5008890;28;20942;-74
2023/06/17 11:06:03;;;;;;;7.40;6.80;;;29.40;52.60;;;;;;4997615;28;20236;-73
2023/06/17 11:08:34;;;;;;;7.78;7.07;;;29.20;52.40;;;;;;4995299;28;20232;-74
2023/06/17 11:11:11;;;;;;;6.78;6.18;;;29.10;52.00;;;;;;4997001;28;20224;-74
2023/06/17 11:13:42;;;;;;;7.32;6.63;;;28.70;52.50;;;;;;4994054;28;20224;-74
2023/06/17 11:16:08;;;;;;;7.25;6.63;;;29.40;52.70;;;;;;4981390;28;20213;-73
2023/06/17 11:18:38;;;;;;;7.63;6.15;;;30.00;51.80;;;;;;4990355;28;20682;-74
2023/06/17 11:21:06;;;;;;;7.05;6.50;;;30.40;52.30;;;;;;4996758;28;20240;-74
2023/06/17 11:23:33;;;;;;;9.85;6.60;;;30.50;52.20;;;;;;5004508;28;20311;-74
2023/06/17 11:26:00;;;;;;;7.85;6.55;;;30.60;51.50;;;;;;4988559;28;20228;-72
2023/06/17 11:28:25;;;;;;;7.78;7.07;;;30.50;52.10;;;;;;5001683;28;20229;-71
2023/06/17 11:30:51;;;;;;;7.85;7.15;;;30.50;52.00;;;;;;4983511;28;20247;-73
2023/06/17 11:33:20;;;;;;;7.47;6.88;;;30.80;51.70;;;;;;5003279;28;20209;-72
2023/06/17 11:35:48;;;;;;;7.60;6.75;;;31.10;51.50;;;;;;4989289;28;20230;-72
2023/06/17 11:38:16;;;;;;;6.85;6.10;;;31.30;51.20;;;;;;4987132;28;20591;-72
2023/06/17 11:40:42;;;;;;;7.90;6.57;;;31.50;50.20;;;;;;4999938;28;20249;-72
2023/06/17 11:43:11;;;;;;;7.22;6.63;;;31.40;49.40;;;;;;5007887;28;20213;-72
2023/06/17 11:45:37;;;;;;;6.78;6.18;;;31.20;50.40;;;;;;4988372;28;20818;-72
2023/06/17 11:48:05;;;;;;;7.88;7.18;;;30.40;50.40;;;;;;4991307;28;20270;-72
2023/06/17 11:50:31;;;;;;;6.68;6.03;;;30.20;50.90;;;;;;4997299;28;20324;-72
2023/06/17 11:52:57;;;;;;;7.40;6.55;;;30.30;50.80;;;;;;5006356;28;20678;-72
2023/06/17 11:55:34;;;;;;;6.35;5.82;;;30.80;50.20;;;;;;5004605;28;20316;-71
2023/06/17 11:58:02;;;;;;;6.97;6.28;;;31.20;50.10;;;;;;4986414;28;20293;-72
2023/06/17 12:00:29;;;;;;;6.07;5.65;;;31.20;50.40;;;;;;5000461;28;20226;-72
2023/06/17 12:02:58;;;;;;;6.43;5.93;;;31.30;50.60;;;;;;5005245;28;20304;-72
2023/06/17 12:05:31;;;;;;;7.25;6.22;;;31.40;50.80;;;;;;4989050;28;20255;-72
2023/06/17 12:08:01;;;;;;;8.77;5.78;;;31.70;49.80;;;;;;5003319;28;20237;-72
2023/06/17 12:10:27;;;;;;;6.75;6.25;;;32.00;49.60;;;;;;4981268;28;20292;-72
2023/06/17 12:12:56;;;;;;;6.15;5.68;;;31.90;49.10;;;;;;5005855;28;20248;-72
2023/06/17 12:15:30;;;;;;;7.90;6.38;;;32.20;49.90;;;;;;5004466;28;20221;-72
2023/06/17 12:17:56;;;;;;;6.75;6.22;;;32.30;48.60;;;;;;5005845;28;20296;-73
2023/06/17 12:20:22;;;;;;;6.90;6.07;;;32.50;48.50;;;;;;5001072;28;20221;-72
2023/06/17 12:22:50;;;;;;;6.82;6.32;;;32.50;49.10;;;;;;5002701;28;20218;-72
2023/06/17 12:25:16;;;;;;;6.65;6.15;;;32.30;48.80;;;;;;5006164;28;20584;-72
2023/06/17 12:27:45;;;;;;;6.82;6.20;;;32.20;48.30;;;;;;5001600;28;20300;-72
2023/06/17 12:30:12;;;;;;;6.53;5.93;;;31.30;48.60;;;;;;5004608;28;20221;-72
2023/06/17 12:32:39;;;;;;;7.03;6.43;;;30.60;49.40;;;;;;4985899;28;20587;-72
2023/06/17 12:35:05;;;;;;;6.07;5.63;;;31.20;49.40;;;;;;5002962;28;20689;-73
2023/06/17 12:37:35;;;;;;;6.65;6.15;;;31.70;49.30;;;;;;4998489;28;20229;-72
2023/06/17 12:40:03;;;;;;;7.15;6.55;;;31.70;49.10;;;;;;5000142;28;20271;-71
2023/06/17 12:42:29;;;;;;;7.05;6.40;;;32.20;48.60;;;;;;4999895;28;20324;-72
2023/06/17 12:44:55;;;;;;;6.03;5.57;;;32.50;47.90;;;;;;5005520;28;20328;-73
2023/06/17 12:47:22;;;;;;;7.43;6.72;;;32.80;47.70;;;;;;4988410;28;20245;-72